createdAt,value
2018-07-23T00:00:44.823Z,101001.00
2018-07-23T00:03:14.552Z,101002.80
2018-07-23T00:05:44.257Z,101007.63
2018-07-23T00:08:14.914Z,101001.00
2018-07-23T00:10:44.725Z,101005.00
2018-07-23T00:13:14.462Z,100998.46
2018-07-23T00:15:44.209Z,100997.25
2018-07-23T00:20:42.680Z,100998.56
2018-07-23T00:23:12.454Z,101004.27
2018-07-23T00:25:42.231Z,101002.16
2018-07-23T00:28:11.894Z,101002.54
2018-07-23T00:30:41.682Z,101004.39
2018-07-23T00:33:11.418Z,101008.84
2018-07-23T00:35:41.099Z,101003.11
2018-07-23T00:38:10.765Z,101007.14
2018-07-23T00:40:40.481Z,101004.96
2018-07-23T00:43:10.220Z,101002.39
2018-07-23T00:45:39.982Z,101003.31
2018-07-23T00:48:09.725Z,101002.51
2018-07-23T00:50:39.384Z,100999.91
2018-07-23T00:53:09.089Z,101002.95
2018-07-23T00:55:38.854Z,101001.28
2018-07-23T00:58:08.624Z,101000.43
2018-07-23T01:00:38.335Z,101003.11
2018-07-23T01:03:08.209Z,101000.92
2018-07-23T01:05:39.240Z,101002.27
2018-07-23T01:08:09.104Z,101003.63
2018-07-23T01:10:38.808Z,101003.67
2018-07-23T01:13:08.545Z,101006.80
2018-07-23T01:15:37.914Z,101006.80
2018-07-23T01:18:07.736Z,101012.09
2018-07-23T01:20:37.461Z,101016.55
2018-07-23T01:23:07.276Z,101013.48
2018-07-23T01:25:37.019Z,101012.16
2018-07-23T01:28:06.436Z,101013.94
2018-07-23T01:30:36.182Z,101020.94
2018-07-23T01:33:05.990Z,101018.28
2018-07-23T01:35:35.689Z,101016.13
2018-07-23T01:38:05.377Z,101017.45
2018-07-23T01:40:35.136Z,101017.41
2018-07-23T01:43:04.844Z,101016.54
2018-07-23T01:45:34.637Z,101016.58
2018-07-23T01:48:04.329Z,101021.41
2018-07-23T01:50:34.026Z,101020.56
2018-07-23T01:53:03.941Z,101023.70
2018-07-23T01:55:33.617Z,101027.65
2018-07-23T01:58:03.320Z,101024.17
2018-07-23T02:00:33.069Z,101027.20
2018-07-23T02:03:02.722Z,101027.65
2018-07-23T02:05:32.400Z,101029.44
2018-07-23T02:08:02.130Z,101030.27
2018-07-23T02:10:31.946Z,101035.96
2018-07-23T02:13:01.627Z,101036.44
2018-07-23T02:15:31.344Z,101038.14
2018-07-23T02:18:01.068Z,101041.21
2018-07-23T02:20:30.840Z,101043.02
2018-07-23T02:23:00.576Z,101044.77
2018-07-23T02:25:30.313Z,101044.40
2018-07-23T02:28:00.022Z,101048.36
2018-07-23T02:30:29.721Z,101043.98
2018-07-23T02:32:59.415Z,101046.64
2018-07-23T02:35:29.077Z,101050.17
2018-07-23T02:37:58.794Z,101047.08
2018-07-23T02:40:28.571Z,101047.55
2018-07-23T02:42:58.357Z,101046.67
2018-07-23T02:45:28.075Z,101051.91
2018-07-23T02:47:58.080Z,101048.00
2018-07-23T02:50:27.712Z,101047.55
2018-07-23T02:52:57.438Z,101048.87
2018-07-23T02:55:27.137Z,101045.83
2018-07-23T02:57:56.829Z,101050.23
2018-07-23T03:00:26.759Z,101049.33
2018-07-23T03:02:56.492Z,101048.89
2018-07-23T03:05:26.407Z,101056.33
2018-07-23T03:07:56.113Z,101058.94
2018-07-23T03:10:25.854Z,101060.72
2018-07-23T03:12:55.576Z,101060.73
2018-07-23T03:15:25.307Z,101062.47
2018-07-23T03:17:55.132Z,101065.52
2018-07-23T03:20:24.853Z,101063.33
2018-07-23T03:22:54.605Z,101064.64
2018-07-23T03:25:24.301Z,101068.61
2018-07-23T03:27:54.029Z,101068.62
2018-07-23T03:30:23.717Z,101069.95
2018-07-23T03:32:53.499Z,101070.41
2018-07-23T03:35:23.267Z,101075.67
2018-07-23T03:37:52.939Z,101080.52
2018-07-23T03:40:22.617Z,101077.47
2018-07-23T03:42:52.389Z,101080.11
2018-07-23T03:45:22.162Z,101083.59
2018-07-23T03:47:51.807Z,101075.73
2018-07-23T03:50:21.469Z,101078.38
2018-07-23T03:52:51.138Z,101081.84
2018-07-23T03:55:20.836Z,101082.73
2018-07-23T03:57:50.679Z,101078.78
2018-07-23T04:00:20.364Z,101078.78
2018-07-23T04:02:50.107Z,101080.55
2018-07-23T04:05:19.767Z,101080.53
2018-07-23T04:07:49.537Z,101089.72
2018-07-23T04:10:19.273Z,101083.13
2018-07-23T04:12:48.974Z,101087.05
2018-07-23T04:15:18.685Z,101084.42
2018-07-23T04:17:53.300Z,101079.62
2018-07-23T04:20:23.034Z,101080.05
2018-07-23T04:22:52.705Z,101080.47
2018-07-23T04:25:22.369Z,101089.22
2018-07-23T04:27:52.094Z,101084.40
2018-07-23T04:30:21.917Z,101088.75
2018-07-23T04:32:51.617Z,101085.70
2018-07-23T04:35:21.327Z,101096.61
2018-07-23T04:37:51.076Z,101096.58
2018-07-23T04:40:20.826Z,101096.54
2018-07-23T04:42:50.507Z,101100.45
2018-07-23T04:45:20.152Z,101098.20
2018-07-23T04:47:49.845Z,101097.25
2018-07-23T04:50:19.656Z,101101.13
2018-07-23T04:52:49.364Z,101100.63
2018-07-23T04:55:18.700Z,101105.80
2018-07-23T04:57:48.426Z,101109.24
2018-07-23T05:00:18.233Z,101105.64
2018-07-23T05:02:48.022Z,101099.02
2018-07-23T05:05:17.727Z,101104.59
2018-07-23T05:07:47.090Z,101099.31
2018-07-23T05:10:16.816Z,101098.27
2018-07-23T05:12:46.522Z,101103.40
2018-07-23T05:15:16.256Z,101101.98
2018-07-23T05:17:45.934Z,101105.24
2018-07-23T05:20:15.684Z,101105.59
2018-07-23T05:22:45.359Z,101110.35
2018-07-23T05:25:15.058Z,101107.20
2018-07-23T05:27:45.657Z,101103.16
2018-07-23T05:30:15.787Z,101109.98
2018-07-23T05:32:45.140Z,101108.37
2018-07-23T05:35:14.880Z,101111.05
2018-07-23T05:37:44.625Z,101108.64
2018-07-23T05:40:14.366Z,101109.69
2018-07-23T05:45:23.548Z,101114.06
2018-07-23T05:47:54.618Z,101110.52
2018-07-23T05:50:24.285Z,101118.11
2018-07-23T05:52:54.101Z,101110.63
2018-07-23T05:55:23.814Z,101103.20
2018-07-23T05:57:53.899Z,101102.48
2018-07-23T06:00:23.215Z,101101.84
2018-07-23T06:02:52.948Z,101102.22
2018-07-23T06:05:22.589Z,101098.73
2018-07-23T06:07:52.280Z,101102.47
2018-07-23T06:10:22.031Z,101095.30
2018-07-23T06:12:51.808Z,101098.39
2018-07-23T06:15:21.567Z,101100.73
2018-07-23T06:17:51.374Z,101098.88
2018-07-23T06:20:21.237Z,101107.35
2018-07-23T06:22:51.016Z,101109.26
2018-07-23T06:25:20.352Z,101111.86
2018-07-23T06:27:50.020Z,101114.41
2018-07-23T06:30:19.889Z,101120.18
2018-07-23T06:32:49.558Z,101121.87
2018-07-23T06:35:19.369Z,101123.32
2018-07-23T06:37:49.116Z,101125.97
2018-07-23T06:40:19.027Z,101125.58
2018-07-23T06:42:48.741Z,101122.37
2018-07-23T06:45:18.505Z,101120.72
2018-07-23T06:47:48.281Z,101120.15
2018-07-23T06:50:18.578Z,101118.06
2018-07-23T06:52:48.330Z,101130.25
2018-07-23T06:55:18.752Z,101129.39
2018-07-23T06:57:48.437Z,101130.38
2018-07-23T07:00:18.839Z,101131.08
2018-07-23T07:02:48.526Z,101129.41
2018-07-23T07:05:18.242Z,101127.52
2018-07-23T07:07:47.913Z,101133.28
2018-07-23T07:10:17.581Z,101133.88
2018-07-23T07:12:47.316Z,101133.09
2018-07-23T07:15:17.002Z,101133.48
2018-07-23T07:17:46.738Z,101128.28
2018-07-23T07:20:16.465Z,101128.48
2018-07-23T07:22:46.137Z,101128.75
2018-07-23T07:25:15.955Z,101126.22
2018-07-23T07:27:45.580Z,101131.33
2018-07-23T07:30:15.358Z,101134.88
2018-07-23T07:32:45.003Z,101127.77
2018-07-23T07:35:14.739Z,101126.54
2018-07-23T07:37:44.513Z,101127.58
2018-07-23T07:40:14.265Z,101126.50
2018-07-23T07:42:44.033Z,101130.93
2018-07-23T07:45:13.810Z,101132.69
2018-07-23T07:47:43.734Z,101131.63
2018-07-23T07:59:00.014Z,101120.40
2018-07-23T08:01:29.745Z,101120.07
2018-07-23T08:04:00.586Z,101118.33
2018-07-23T08:06:31.613Z,101119.89
2018-07-23T08:09:01.358Z,101113.15
2018-07-23T08:11:31.261Z,101118.06
2018-07-23T08:14:00.998Z,101120.22
2018-07-23T08:16:30.397Z,101124.88
2018-07-23T08:19:00.223Z,101115.69
2018-07-23T08:21:30.021Z,101119.72
2018-07-23T08:23:59.681Z,101122.92
2018-07-23T08:26:29.378Z,101120.84
2018-07-23T08:28:59.252Z,101124.63
2018-07-23T08:31:29.019Z,101122.94
2018-07-23T08:33:58.817Z,101115.93
2018-07-23T08:36:28.549Z,101121.59
2018-07-23T08:38:58.234Z,101122.96
2018-07-23T08:41:28.090Z,101116.69
2018-07-23T08:43:58.118Z,101110.22
2018-07-23T08:46:27.947Z,101114.63
2018-07-23T08:48:57.632Z,101113.41
2018-07-23T08:51:27.474Z,101115.63
2018-07-23T08:53:57.284Z,101109.81
2018-07-23T08:56:26.973Z,101110.91
2018-07-23T08:58:56.761Z,101112.69
2018-07-23T09:01:26.545Z,101114.54
2018-07-23T09:03:56.358Z,101116.55
2018-07-23T09:06:26.067Z,101115.80
2018-07-23T09:08:55.903Z,101114.07
2018-07-23T09:11:25.361Z,101123.27
2018-07-23T09:13:55.228Z,101125.84
2018-07-23T09:16:25.072Z,101124.99
2018-07-23T09:19:00.026Z,101129.99
2018-07-23T09:21:30.157Z,101129.02
2018-07-23T09:23:59.900Z,101131.27
2018-07-23T09:26:30.786Z,101123.11
2018-07-23T09:29:00.553Z,101122.77
2018-07-23T09:31:30.328Z,101125.92
2018-07-23T09:34:00.204Z,101125.70
2018-07-23T09:36:33.489Z,101123.30
2018-07-23T09:39:05.057Z,101125.70
2018-07-23T09:41:34.748Z,101128.19
2018-07-23T09:44:04.708Z,101126.84
2018-07-23T09:46:34.605Z,101129.27
2018-07-23T09:49:04.297Z,101128.60
2018-07-23T09:51:34.132Z,101130.02
2018-07-23T09:54:04.002Z,101127.48
2018-07-23T09:56:33.711Z,101122.72
2018-07-23T09:59:03.420Z,101115.34
2018-07-23T10:01:33.348Z,101112.59
2018-07-23T10:04:03.082Z,101116.17
2018-07-23T10:06:32.925Z,101117.53
2018-07-23T10:09:02.670Z,101106.97
2018-07-23T10:11:32.476Z,101115.07
2018-07-23T10:14:02.186Z,101104.77
2018-07-23T10:16:31.957Z,101107.86
2018-07-23T10:19:02.517Z,101110.52
2018-07-23T10:21:32.425Z,101118.27
2018-07-23T10:24:02.197Z,101111.80
2018-07-23T10:26:31.955Z,101111.89
2018-07-23T10:29:01.698Z,101107.75
2018-07-23T10:31:31.518Z,101105.06
2018-07-23T10:34:01.209Z,101098.89
2018-07-23T10:36:30.869Z,101099.67
2018-07-23T10:39:00.718Z,101098.13
2018-07-23T10:41:30.482Z,101093.06
2018-07-23T10:44:00.181Z,101096.69
2018-07-23T10:46:29.911Z,101091.32
2018-07-23T10:49:06.525Z,101095.28
2018-07-23T10:51:36.261Z,101093.21
2018-07-23T10:54:06.275Z,101089.22
2018-07-23T10:56:35.966Z,101081.49
2018-07-23T10:59:06.482Z,101092.13
2018-07-23T11:01:36.196Z,101085.94
2018-07-23T11:04:05.976Z,101085.67
2018-07-23T11:06:35.806Z,101085.27
2018-07-23T11:09:08.114Z,101089.63
2018-07-23T11:11:38.106Z,101086.16
2018-07-23T11:14:07.849Z,101085.22
2018-07-23T11:16:37.619Z,101094.45
2018-07-23T11:19:07.292Z,101084.14
2018-07-23T11:21:37.009Z,101090.18
2018-07-23T11:24:07.077Z,101083.20
2018-07-23T11:26:36.722Z,101089.53
2018-07-23T11:29:06.427Z,101091.02
2018-07-23T11:31:36.088Z,101084.84
2018-07-23T11:34:06.149Z,101078.43
2018-07-23T11:36:35.850Z,101075.36
2018-07-23T11:39:08.456Z,101085.08
2018-07-23T11:41:38.415Z,101079.67
2018-07-23T11:44:08.097Z,101083.86
2018-07-23T11:46:37.975Z,101083.77
2018-07-23T11:49:07.315Z,101081.75
2018-07-23T11:51:37.954Z,101087.16
2018-07-23T11:54:08.170Z,101082.88
2018-07-23T11:56:38.044Z,101078.50
2018-07-23T11:59:07.571Z,101077.87
2018-07-23T12:01:37.261Z,101075.44
2018-07-23T12:04:10.408Z,101079.02
2018-07-23T12:06:36.596Z,101080.50
2018-07-23T12:09:10.355Z,101077.79
2018-07-23T12:11:40.546Z,101080.38
2018-07-23T12:14:10.233Z,101085.87
2018-07-23T12:16:40.054Z,101076.29
2018-07-23T12:19:09.455Z,101076.42
2018-07-23T12:21:38.837Z,101077.32
2018-07-23T12:24:08.626Z,101074.58
2018-07-23T12:26:38.330Z,101070.39
2018-07-23T12:29:08.087Z,101069.50
2018-07-23T12:31:37.825Z,101071.78
2018-07-23T12:34:07.814Z,101066.74
2018-07-23T12:36:37.720Z,101069.08
2018-07-23T12:39:11.418Z,101065.62
2018-07-23T12:41:41.789Z,101067.11
2018-07-23T12:44:11.434Z,101063.09
2018-07-23T12:46:41.144Z,101062.36
2018-07-23T12:49:10.841Z,101057.09
2018-07-23T12:51:40.208Z,101057.55
2018-07-23T12:54:10.043Z,101053.02
2018-07-23T12:56:39.777Z,101059.54
2018-07-23T12:59:09.510Z,101046.33
2018-07-23T13:01:39.146Z,101054.55
2018-07-23T13:04:08.877Z,101049.46
2018-07-23T13:06:38.589Z,101049.47
2018-07-23T13:09:12.171Z,101052.41
2018-07-23T13:11:41.922Z,101046.91
2018-07-23T13:14:11.644Z,101046.12
2018-07-23T13:16:41.370Z,101044.47
2018-07-23T13:19:11.067Z,101054.63
2018-07-23T13:21:40.789Z,101055.52
2018-07-23T13:24:10.500Z,101046.69
2018-07-23T13:26:40.253Z,101057.37
2018-07-23T13:29:10.508Z,101049.44
2018-07-23T13:31:40.230Z,101046.84
2018-07-23T13:34:09.938Z,101047.81
2018-07-23T13:36:39.661Z,101038.41
2018-07-23T13:39:12.082Z,101041.25
2018-07-23T13:41:41.959Z,101041.39
2018-07-23T13:44:12.618Z,101031.47
2018-07-23T13:46:41.993Z,101034.48
2018-07-23T13:49:11.713Z,101027.84
2018-07-23T13:51:41.583Z,101027.28
2018-07-23T13:54:11.289Z,101028.82
2018-07-23T13:56:41.033Z,101027.80
2018-07-23T13:59:10.720Z,101026.73
2018-07-23T14:01:40.401Z,101024.20
2018-07-23T14:04:10.131Z,101027.97
2018-07-23T14:06:39.806Z,101028.23
2018-07-23T14:09:11.724Z,101022.39
2018-07-23T14:11:41.845Z,101020.19
2018-07-23T14:14:11.613Z,101024.75
2018-07-23T14:16:41.332Z,101024.75
2018-07-23T14:19:11.002Z,101023.10
2018-07-23T14:21:40.696Z,101018.59
2018-07-23T14:24:10.467Z,101020.91
2018-07-23T14:26:40.285Z,101015.79
2018-07-23T14:29:10.045Z,101014.55
2018-07-23T14:31:39.796Z,101012.17
2018-07-23T14:34:09.569Z,101015.00
2018-07-23T14:36:39.341Z,101013.93
2018-07-23T14:39:12.789Z,101011.83
2018-07-23T14:41:42.563Z,101006.87
2018-07-23T14:44:12.326Z,101008.83
2018-07-23T14:46:42.133Z,101003.81
2018-07-23T14:49:11.858Z,100995.75
2018-07-23T14:51:43.232Z,100999.95
2018-07-23T14:54:12.932Z,100999.83
2018-07-23T14:56:42.673Z,100994.04
2018-07-23T14:59:12.444Z,100991.20
2018-07-23T15:01:44.257Z,100991.56
2018-07-23T15:04:13.988Z,100996.08
2018-07-23T15:06:43.357Z,100990.38
2018-07-23T15:09:13.160Z,100986.56
2018-07-23T15:11:42.972Z,100988.34
2018-07-23T15:14:12.676Z,100991.74
2018-07-23T15:16:42.348Z,100984.71
2018-07-23T15:19:12.125Z,100986.23
2018-07-23T15:21:41.782Z,100978.38
2018-07-23T15:24:11.513Z,100987.30
2018-07-23T15:26:41.277Z,100986.14
2018-07-23T15:29:10.945Z,100990.30
2018-07-23T15:31:40.605Z,100986.63
2018-07-23T15:34:10.441Z,100986.73
2018-07-23T15:36:39.829Z,100983.67
2018-07-23T15:39:10.987Z,100985.56
2018-07-23T15:41:40.683Z,100986.29
2018-07-23T15:44:10.531Z,100977.77
2018-07-23T15:46:40.082Z,100978.45
2018-07-23T15:49:09.767Z,100972.89
2018-07-23T15:51:39.461Z,100976.39
2018-07-23T15:54:08.873Z,100969.86
2018-07-23T15:56:38.234Z,100967.39
2018-07-23T15:59:08.020Z,100969.29
2018-07-23T16:01:37.727Z,100965.57
2018-07-23T16:04:07.594Z,100967.78
2018-07-23T16:06:37.362Z,100971.14
2018-07-23T16:09:15.662Z,100967.33
2018-07-23T16:11:45.394Z,100963.97
2018-07-23T16:14:15.130Z,100964.80
2018-07-23T16:16:44.929Z,100957.02
2018-07-23T16:19:14.657Z,100961.88
2018-07-23T16:21:44.345Z,100956.01
2018-07-23T16:24:13.995Z,100964.28
2018-07-23T16:26:43.653Z,100962.77
2018-07-23T16:29:13.384Z,100958.37
2018-07-23T16:31:43.139Z,100957.80
2018-07-23T16:34:13.093Z,100965.45
2018-07-23T16:36:42.450Z,100964.06
2018-07-23T16:39:13.573Z,100964.44
2018-07-23T16:41:43.675Z,100959.52
2018-07-23T16:44:13.490Z,100963.00
2018-07-23T16:46:43.217Z,100963.03
2018-07-23T16:49:12.900Z,100954.88
2018-07-23T16:51:42.297Z,100958.85
2018-07-23T16:54:11.994Z,100958.78
2018-07-23T16:56:41.877Z,100959.36
2018-07-23T16:59:11.763Z,100959.52
2018-07-23T17:01:41.514Z,100955.13
2018-07-23T17:04:11.277Z,100945.61
2018-07-23T17:06:40.994Z,100947.20
2018-07-23T17:09:12.305Z,100951.37
2018-07-23T17:11:41.957Z,100947.27
2018-07-23T17:14:11.616Z,100945.23
2018-07-23T17:16:41.415Z,100947.58
2018-07-23T17:19:11.090Z,100956.59
2018-07-23T17:21:40.800Z,100954.46
2018-07-23T17:24:10.508Z,100952.91
2018-07-23T17:26:40.196Z,100950.80
2018-07-23T17:29:09.992Z,100945.80
2018-07-23T17:31:39.764Z,100945.69
2018-07-23T17:34:09.528Z,100952.34
2018-07-23T17:36:39.299Z,100948.55
2018-07-23T17:39:12.043Z,100949.55
2018-07-23T17:41:41.993Z,100945.46
2018-07-23T17:44:11.772Z,100956.26
2018-07-23T17:46:41.472Z,100954.16
2018-07-23T17:49:11.224Z,100947.57
2018-07-23T17:51:41.089Z,100946.28
2018-07-23T17:54:10.801Z,100951.01
2018-07-23T17:56:40.652Z,100947.73
2018-07-23T17:59:10.401Z,100947.58
2018-07-23T18:01:40.088Z,100948.63
2018-07-23T18:04:09.822Z,100947.75
2018-07-23T18:06:39.780Z,100953.48
2018-07-23T18:09:11.852Z,100952.23
2018-07-23T18:11:41.834Z,100952.84
2018-07-23T18:14:11.740Z,100959.31
2018-07-23T18:16:41.701Z,100954.50
2018-07-23T18:19:11.449Z,100951.27
2018-07-23T18:21:41.182Z,100953.55
2018-07-23T18:24:10.946Z,100950.44
2018-07-23T18:26:40.661Z,100953.05
2018-07-23T18:29:10.399Z,100958.44
2018-07-23T18:31:40.262Z,100946.08
2018-07-23T18:34:10.005Z,100946.64
2018-07-23T18:36:39.711Z,100945.78
2018-07-23T18:39:11.880Z,100947.88
2018-07-23T18:41:42.225Z,100948.83
2018-07-23T18:44:11.982Z,100946.97
2018-07-23T18:46:41.756Z,100951.43
2018-07-23T18:49:35.894Z,100947.20
2018-07-23T18:52:05.660Z,100947.75
2018-07-23T18:54:35.729Z,100950.69
2018-07-23T18:57:06.689Z,100946.56
2018-07-23T18:59:36.642Z,100948.74
2018-07-23T19:02:07.849Z,100950.39
2018-07-23T19:04:37.650Z,100952.30
2018-07-23T19:07:08.516Z,100945.66
2018-07-23T19:09:38.301Z,100951.41
2018-07-23T19:12:08.885Z,100956.42
2018-07-23T19:14:38.643Z,100952.09
2018-07-23T19:17:09.737Z,100950.70
2018-07-23T19:19:39.433Z,100954.52
2018-07-23T19:22:09.342Z,100950.37
2018-07-23T19:24:39.059Z,100954.52
2018-07-23T19:27:09.325Z,100967.48
2018-07-23T19:29:39.101Z,100961.46
2018-07-23T19:32:08.856Z,100968.63
2018-07-23T19:34:38.653Z,100964.74
2018-07-23T19:37:08.429Z,100973.00
2018-07-23T19:39:38.545Z,100973.90
2018-07-23T19:42:07.947Z,100965.94
2018-07-23T19:44:37.651Z,100968.52
2018-07-23T19:47:07.530Z,100964.02
2018-07-23T19:49:37.277Z,100963.08
2018-07-23T19:52:07.325Z,100965.50
2018-07-23T19:54:36.773Z,100967.99
2018-07-23T19:57:06.531Z,100974.00
2018-07-23T19:59:36.410Z,100964.95
2018-07-23T20:02:06.121Z,100974.12
2018-07-23T20:04:36.030Z,100969.72
2018-07-23T20:07:06.222Z,100971.80
2018-07-23T20:09:37.012Z,100965.48
2018-07-23T20:12:07.081Z,100967.53
2018-07-23T20:14:36.919Z,100971.70
2018-07-23T20:17:06.758Z,100971.94
2018-07-23T20:19:36.548Z,100970.09
2018-07-23T20:22:06.343Z,100974.77
2018-07-23T20:24:36.103Z,100973.30
2018-07-23T20:27:06.028Z,100968.36
2018-07-23T20:29:35.831Z,100968.34
2018-07-23T20:32:05.559Z,100968.38
2018-07-23T20:34:35.272Z,100965.75
2018-07-23T20:37:05.135Z,100967.68
2018-07-23T20:39:35.723Z,100968.31
2018-07-23T20:42:05.435Z,100968.34
2018-07-23T20:44:35.206Z,100969.55
2018-07-23T20:47:04.913Z,100972.48
2018-07-23T20:49:34.617Z,100974.62
2018-07-23T20:52:04.155Z,100977.56
2018-07-23T20:54:33.903Z,100977.05
2018-07-23T20:57:03.727Z,100973.70
2018-07-23T20:59:33.507Z,100975.25
2018-07-23T21:02:03.290Z,100977.70
2018-07-23T21:04:33.154Z,100967.77
2018-07-23T21:07:02.878Z,100970.17
2018-07-23T21:09:32.578Z,100974.30
2018-07-23T21:12:02.222Z,100968.69
2018-07-23T21:14:32.008Z,100972.31
2018-07-23T21:17:01.906Z,100974.56
2018-07-23T21:19:31.641Z,100972.05
2018-07-23T21:22:01.408Z,100973.37
2018-07-23T21:24:31.233Z,100980.34
2018-07-23T21:27:01.245Z,100982.06
2018-07-23T21:29:31.472Z,100979.56
2018-07-23T21:32:01.373Z,100982.16
2018-07-23T21:34:31.141Z,100981.88
2018-07-23T21:37:01.053Z,100983.41
2018-07-23T21:39:30.918Z,100985.44
2018-07-23T21:42:00.796Z,100991.29
2018-07-23T21:44:30.514Z,100985.63
2018-07-23T21:47:00.385Z,100983.50
2018-07-23T21:49:30.056Z,100987.12
2018-07-23T21:52:00.169Z,100985.39
2018-07-23T21:54:30.412Z,100985.93
2018-07-23T21:57:00.170Z,100986.22
2018-07-23T21:59:29.884Z,100985.94
2018-07-23T22:01:59.701Z,100990.93
2018-07-23T22:04:29.248Z,100985.31
2018-07-23T22:06:58.996Z,100991.53
2018-07-23T22:09:28.738Z,100993.80
2018-07-23T22:11:58.110Z,100994.67
2018-07-23T22:14:27.897Z,100989.11
2018-07-23T22:16:57.598Z,100997.98
2018-07-23T22:19:27.516Z,100997.07
2018-07-23T22:21:57.249Z,100996.52
2018-07-23T22:24:26.974Z,100993.88
2018-07-23T22:26:56.677Z,100998.34
2018-07-23T22:29:26.438Z,100994.95
2018-07-23T22:31:56.178Z,100995.05
2018-07-23T22:34:26.839Z,101000.38
2018-07-23T22:36:56.767Z,100994.34
2018-07-23T22:39:26.564Z,100997.86
2018-07-23T22:41:56.292Z,100996.99
2018-07-23T22:44:26.076Z,100998.37
2018-07-23T22:46:55.802Z,100995.27
2018-07-23T22:49:25.624Z,100995.88
2018-07-23T22:51:55.329Z,100994.20
2018-07-23T22:54:25.036Z,100995.63
2018-07-23T22:56:54.777Z,101000.17
2018-07-23T22:59:24.451Z,100994.50
2018-07-23T23:01:54.192Z,100986.66
2018-07-23T23:04:27.551Z,100990.75
2018-07-23T23:06:57.297Z,100989.97
2018-07-23T23:09:27.260Z,100993.13
2018-07-23T23:11:56.998Z,100994.44
2018-07-23T23:14:26.719Z,100993.13
2018-07-23T23:16:56.505Z,100992.30
2018-07-23T23:19:26.292Z,100993.63
2018-07-23T23:21:56.324Z,100993.72
2018-07-23T23:24:26.128Z,100995.53
2018-07-23T23:26:55.840Z,100993.31
2018-07-23T23:29:25.475Z,100991.31
2018-07-23T23:31:55.334Z,100987.37
2018-07-23T23:34:25.010Z,100986.55
2018-07-23T23:36:54.729Z,100989.27
2018-07-23T23:39:24.502Z,100989.81
2018-07-23T23:41:54.329Z,100990.95
2018-07-23T23:44:24.068Z,100986.82
2018-07-23T23:46:53.828Z,100989.55
2018-07-23T23:49:23.642Z,100991.36
2018-07-23T23:51:53.342Z,100979.10
2018-07-23T23:54:23.051Z,100980.18
2018-07-23T23:56:52.797Z,100979.73
2018-07-23T23:59:22.745Z,100976.23
